createdAt,value
2019-05-29T00:00:39.777Z,18.74
2019-05-29T00:03:12.333Z,18.66
2019-05-29T00:05:43.498Z,18.63
2019-05-29T00:08:14.804Z,18.58
2019-05-29T00:10:46.029Z,18.48
2019-05-29T00:13:18.497Z,18.37
2019-05-29T00:15:49.975Z,18.26
2019-05-29T00:18:21.253Z,18.30
2019-05-29T00:20:52.215Z,18.36
2019-05-29T00:23:23.349Z,18.43
2019-05-29T00:25:55.894Z,18.36
2019-05-29T00:28:27.027Z,18.37
2019-05-29T00:30:58.374Z,18.36
2019-05-29T00:33:29.768Z,18.34
2019-05-29T00:36:00.792Z,18.23
2019-05-29T00:38:31.691Z,18.26
2019-05-29T00:41:02.675Z,18.29
2019-05-29T00:43:33.713Z,18.30
2019-05-29T00:46:04.953Z,18.23
2019-05-29T00:48:35.964Z,18.27
2019-05-29T00:51:07.037Z,18.27
2019-05-29T00:53:38.224Z,18.36
2019-05-29T00:56:10.529Z,18.26
2019-05-29T00:58:41.644Z,18.36
2019-05-29T01:01:13.379Z,18.32
2019-05-29T01:03:44.402Z,18.38
2019-05-29T01:06:16.056Z,18.31
2019-05-29T01:08:48.303Z,18.26
2019-05-29T01:11:19.157Z,18.26
2019-05-29T01:13:50.275Z,18.25
2019-05-29T01:16:21.787Z,18.14
2019-05-29T01:18:54.442Z,18.14
2019-05-29T01:21:25.655Z,18.02
2019-05-29T01:23:56.914Z,17.98
2019-05-29T01:26:28.050Z,17.83
2019-05-29T01:28:59.000Z,17.66
2019-05-29T01:31:29.858Z,17.65
2019-05-29T01:34:00.882Z,17.50
2019-05-29T01:36:31.738Z,17.49
2019-05-29T01:39:02.685Z,17.39
2019-05-29T01:41:33.783Z,17.41
2019-05-29T01:44:05.075Z,17.24
2019-05-29T01:46:36.144Z,17.24
2019-05-29T01:49:07.202Z,17.26
2019-05-29T01:51:38.510Z,17.16
2019-05-29T01:54:09.588Z,17.22
2019-05-29T01:56:40.873Z,17.18
2019-05-29T01:59:11.816Z,17.22
2019-05-29T02:01:43.096Z,17.16
2019-05-29T02:04:14.150Z,17.16
2019-05-29T02:06:45.217Z,17.16
2019-05-29T02:09:16.134Z,17.16
2019-05-29T02:11:47.609Z,17.13
2019-05-29T02:14:18.561Z,17.02
2019-05-29T02:16:49.986Z,17.08
2019-05-29T02:19:21.879Z,17.04
2019-05-29T02:21:54.097Z,16.89
2019-05-29T02:24:25.481Z,16.70
2019-05-29T02:26:56.780Z,16.49
2019-05-29T02:29:28.061Z,16.49
2019-05-29T02:31:59.394Z,16.35
2019-05-29T02:34:30.633Z,16.26
2019-05-29T02:37:01.944Z,16.26
2019-05-29T02:39:33.406Z,16.37
2019-05-29T02:42:05.086Z,16.39
2019-05-29T02:44:36.527Z,16.39
2019-05-29T02:47:07.638Z,16.43
2019-05-29T02:49:38.773Z,16.31
2019-05-29T02:52:09.936Z,16.29
2019-05-29T02:54:41.233Z,16.08
2019-05-29T02:57:12.578Z,16.08
2019-05-29T02:59:43.820Z,15.90
2019-05-29T03:02:14.869Z,15.81
2019-05-29T03:04:45.970Z,15.81
2019-05-29T03:07:17.354Z,15.92
2019-05-29T03:09:48.940Z,15.89
2019-05-29T03:12:20.164Z,16.08
2019-05-29T03:14:51.281Z,16.14
2019-05-29T03:17:23.638Z,16.14
2019-05-29T03:19:54.943Z,16.18
2019-05-29T03:22:26.314Z,16.41
2019-05-29T03:24:57.562Z,16.41
2019-05-29T03:27:29.881Z,16.56
2019-05-29T03:30:00.944Z,16.57
2019-05-29T03:32:42.375Z,16.53
2019-05-29T03:35:06.318Z,16.51
2019-05-29T03:37:38.813Z,16.51
2019-05-29T03:40:10.403Z,16.50
2019-05-29T03:42:41.238Z,16.60
2019-05-29T03:45:12.644Z,16.70
2019-05-29T03:47:44.748Z,16.70
2019-05-29T03:50:16.362Z,16.76
2019-05-29T03:52:47.777Z,16.80
2019-05-29T03:55:18.709Z,16.81
2019-05-29T03:57:49.994Z,16.84
2019-05-29T04:00:21.256Z,16.85
2019-05-29T04:02:52.133Z,16.95
2019-05-29T04:05:23.004Z,16.97
2019-05-29T04:07:53.934Z,16.93
2019-05-29T04:10:32.993Z,17.01
2019-05-29T04:13:04.480Z,17.07
2019-05-29T04:15:36.967Z,16.88
2019-05-29T04:18:08.590Z,16.90
2019-05-29T04:20:39.690Z,16.95
2019-05-29T04:23:10.841Z,17.14
2019-05-29T04:25:43.006Z,17.31
2019-05-29T04:28:14.216Z,17.17
2019-05-29T04:30:45.394Z,17.46
2019-05-29T04:33:16.332Z,17.77
2019-05-29T04:35:47.250Z,17.77
2019-05-29T04:38:18.166Z,17.96
2019-05-29T04:40:49.243Z,18.13
2019-05-29T04:43:20.142Z,18.33
2019-05-29T04:45:50.981Z,18.42
2019-05-29T04:48:21.890Z,18.66
2019-05-29T04:50:52.707Z,19.01
2019-05-29T04:53:23.679Z,19.44
2019-05-29T04:55:54.607Z,19.82
2019-05-29T04:58:25.572Z,20.00
2019-05-29T05:00:59.396Z,20.20
2019-05-29T05:03:29.173Z,20.33
2019-05-29T05:06:00.088Z,20.53
2019-05-29T05:08:31.273Z,20.78
2019-05-29T05:11:02.617Z,21.03
2019-05-29T05:13:33.533Z,21.18
2019-05-29T05:16:04.954Z,21.70
2019-05-29T05:18:35.925Z,22.57
2019-05-29T05:21:06.820Z,23.08
2019-05-29T05:23:38.231Z,23.47
2019-05-29T05:26:09.734Z,24.17
2019-05-29T05:28:43.757Z,25.06
2019-05-29T05:31:13.702Z,25.68
2019-05-29T05:33:45.078Z,25.48
2019-05-29T05:36:16.183Z,24.38
2019-05-29T05:38:47.316Z,24.24
2019-05-29T05:41:18.666Z,25.08
2019-05-29T05:43:49.952Z,25.15
2019-05-29T05:46:24.686Z,26.17
2019-05-29T05:48:54.056Z,26.02
2019-05-29T05:51:25.345Z,25.56
2019-05-29T05:53:56.456Z,25.93
2019-05-29T05:56:27.540Z,26.23
2019-05-29T05:58:58.617Z,26.32
2019-05-29T06:01:29.560Z,27.21
2019-05-29T06:04:00.407Z,27.51
2019-05-29T06:06:31.988Z,26.67
2019-05-29T06:09:03.195Z,26.39
2019-05-29T06:11:34.253Z,26.49
2019-05-29T06:14:05.303Z,25.91
2019-05-29T06:16:36.517Z,26.31
2019-05-29T06:19:07.910Z,25.06
2019-05-29T06:21:38.865Z,25.04
2019-05-29T06:24:10.104Z,25.81
2019-05-29T06:26:41.174Z,26.62
2019-05-29T06:29:13.289Z,26.73
2019-05-29T06:31:44.323Z,26.31
2019-05-29T06:34:15.965Z,25.21
2019-05-29T06:36:48.319Z,25.46
2019-05-29T06:39:19.512Z,25.63
2019-05-29T06:41:50.390Z,25.31
2019-05-29T06:44:21.477Z,26.47
2019-05-29T06:46:52.628Z,27.26
2019-05-29T06:49:23.962Z,27.65
2019-05-29T06:51:55.298Z,26.42
2019-05-29T06:54:26.685Z,26.03
2019-05-29T06:56:58.034Z,26.74
2019-05-29T06:59:29.325Z,27.24
2019-05-29T07:02:00.342Z,27.79
2019-05-29T07:04:31.453Z,27.53
2019-05-29T07:07:02.674Z,28.03
2019-05-29T07:09:34.094Z,26.30
2019-05-29T07:12:05.157Z,26.30
2019-05-29T07:14:36.506Z,26.39
2019-05-29T07:17:08.106Z,25.78
2019-05-29T07:19:54.340Z,25.87
2019-05-29T07:22:12.099Z,26.50
2019-05-29T07:24:44.935Z,27.45
2019-05-29T07:27:15.934Z,27.12
2019-05-29T07:29:47.448Z,26.88
2019-05-29T07:32:18.768Z,27.17
2019-05-29T07:35:02.697Z,26.66
2019-05-29T07:37:22.713Z,25.97
2019-05-29T07:39:53.872Z,25.63
2019-05-29T07:42:25.187Z,26.07
2019-05-29T07:44:56.445Z,25.95
2019-05-29T07:47:27.504Z,26.74
2019-05-29T07:49:58.597Z,26.40
2019-05-29T07:52:29.714Z,26.88
2019-05-29T07:55:00.775Z,27.97
2019-05-29T07:57:32.811Z,28.13
2019-05-29T08:00:04.089Z,27.45
2019-05-29T08:02:36.490Z,28.09
2019-05-29T08:05:08.172Z,27.39
2019-05-29T08:07:39.483Z,27.22
2019-05-29T08:10:12.560Z,27.76
2019-05-29T08:12:48.435Z,27.93
2019-05-29T08:15:16.445Z,28.81
2019-05-29T08:17:48.209Z,28.21
2019-05-29T08:20:19.707Z,28.43
2019-05-29T08:22:51.282Z,28.07
2019-05-29T08:25:22.581Z,28.17
2019-05-29T08:27:53.837Z,28.76
2019-05-29T08:30:24.846Z,27.63
2019-05-29T08:32:55.945Z,27.37
2019-05-29T08:35:27.369Z,27.68
2019-05-29T08:37:58.614Z,28.05
2019-05-29T08:40:30.043Z,27.50
2019-05-29T08:43:01.896Z,27.77
2019-05-29T08:45:33.354Z,28.76
2019-05-29T08:48:04.728Z,29.08
2019-05-29T08:50:35.837Z,29.06
2019-05-29T08:53:09.159Z,29.09
2019-05-29T08:55:40.004Z,29.52
2019-05-29T08:58:11.158Z,28.66
2019-05-29T09:00:46.573Z,28.23
2019-05-29T09:03:15.616Z,28.05
2019-05-29T09:05:46.784Z,28.55
2019-05-29T09:08:18.068Z,28.95
2019-05-29T09:10:49.668Z,28.99
2019-05-29T09:13:20.873Z,29.27
2019-05-29T09:15:51.873Z,28.81
2019-05-29T09:18:25.549Z,28.87
2019-05-29T09:21:03.178Z,29.02
2019-05-29T09:23:30.816Z,29.50
2019-05-29T09:26:13.940Z,30.08
2019-05-29T09:28:34.446Z,29.76
2019-05-29T09:31:05.479Z,29.92
2019-05-29T09:33:36.456Z,30.00
2019-05-29T09:36:07.520Z,28.59
2019-05-29T09:38:38.590Z,27.63
2019-05-29T09:41:09.579Z,28.02
2019-05-29T09:43:57.760Z,28.29
2019-05-29T09:46:13.586Z,28.19
2019-05-29T09:48:49.883Z,28.60
2019-05-29T09:51:21.524Z,28.91
2019-05-29T09:53:52.535Z,28.63
2019-05-29T09:56:24.361Z,27.77
2019-05-29T09:58:56.334Z,28.02
2019-05-29T10:01:28.285Z,28.39
2019-05-29T10:04:01.913Z,29.27
2019-05-29T10:06:32.290Z,29.03
2019-05-29T10:09:03.748Z,28.29
2019-05-29T10:11:35.012Z,28.59
2019-05-29T10:14:06.478Z,28.50
2019-05-29T10:16:37.407Z,28.18
2019-05-29T10:19:08.453Z,27.84
2019-05-29T10:21:41.328Z,27.79
2019-05-29T10:24:12.178Z,27.77
2019-05-29T10:26:43.098Z,27.51
2019-05-29T10:29:13.971Z,27.47
2019-05-29T10:31:47.156Z,27.43
2019-05-29T10:34:17.908Z,27.69
2019-05-29T10:36:52.663Z,28.25
2019-05-29T10:39:21.755Z,29.00
2019-05-29T10:41:53.148Z,29.61
2019-05-29T10:44:24.481Z,29.33
2019-05-29T10:46:56.592Z,29.44
2019-05-29T10:49:28.141Z,28.98
2019-05-29T10:52:14.020Z,28.51
2019-05-29T10:54:32.344Z,27.80
2019-05-29T10:57:03.594Z,27.89
2019-05-29T10:59:34.716Z,27.63
2019-05-29T11:02:06.159Z,27.36
2019-05-29T11:04:37.399Z,27.46
2019-05-29T11:07:08.502Z,27.81
2019-05-29T11:09:44.383Z,27.69
2019-05-29T11:12:12.494Z,27.80
2019-05-29T11:14:43.894Z,28.09
2019-05-29T11:17:14.868Z,27.82
2019-05-29T11:19:47.161Z,27.60
2019-05-29T11:22:26.194Z,27.19
2019-05-29T11:24:52.353Z,27.40
2019-05-29T11:27:26.057Z,27.99
2019-05-29T11:29:57.110Z,27.87
2019-05-29T11:32:28.508Z,28.12
2019-05-29T11:34:59.747Z,27.90
2019-05-29T11:37:30.967Z,28.00
2019-05-29T11:40:03.332Z,27.76
2019-05-29T11:42:34.480Z,27.45
2019-05-29T11:45:06.154Z,27.53
2019-05-29T11:47:37.301Z,27.66
2019-05-29T11:50:19.101Z,27.61
2019-05-29T11:52:43.948Z,27.87
2019-05-29T11:55:15.745Z,27.80
2019-05-29T11:57:46.832Z,27.94
2019-05-29T12:00:21.139Z,28.02
2019-05-29T12:02:53.908Z,27.80
2019-05-29T12:05:26.098Z,27.37
2019-05-29T12:07:57.604Z,26.97
2019-05-29T12:10:28.581Z,26.63
2019-05-29T12:12:59.854Z,26.63
2019-05-29T12:15:31.055Z,26.76
2019-05-29T12:18:20.040Z,26.66
2019-05-29T12:20:35.989Z,26.76
2019-05-29T12:23:23.010Z,27.00
2019-05-29T12:25:40.403Z,27.23
2019-05-29T12:28:13.070Z,27.60
2019-05-29T12:30:44.622Z,27.85
2019-05-29T12:33:15.983Z,27.89
2019-05-29T12:35:50.053Z,28.19
2019-05-29T12:38:20.137Z,27.87
2019-05-29T12:40:53.450Z,27.91
2019-05-29T12:43:27.702Z,28.14
2019-05-29T12:45:58.045Z,28.25
2019-05-29T12:48:29.128Z,28.00
2019-05-29T12:51:00.437Z,27.73
2019-05-29T12:53:32.682Z,27.64
2019-05-29T12:56:04.584Z,27.46
2019-05-29T12:58:35.709Z,27.21
2019-05-29T13:01:06.860Z,27.22
2019-05-29T13:03:38.149Z,26.90
2019-05-29T13:06:09.708Z,26.67
2019-05-29T13:08:41.327Z,26.77
2019-05-29T13:11:12.329Z,27.09
2019-05-29T13:13:43.838Z,27.40
2019-05-29T13:16:14.743Z,27.24
2019-05-29T13:18:46.106Z,27.32
2019-05-29T13:21:17.219Z,27.36
2019-05-29T13:23:48.503Z,26.84
2019-05-29T13:26:19.454Z,26.49
2019-05-29T13:28:50.911Z,26.31
2019-05-29T13:31:22.203Z,26.07
2019-05-29T13:33:53.138Z,26.19
2019-05-29T13:36:24.801Z,26.40
2019-05-29T13:38:56.045Z,26.61
2019-05-29T13:41:27.647Z,26.79
2019-05-29T13:43:58.798Z,26.82
2019-05-29T13:46:29.909Z,27.03
2019-05-29T13:49:01.277Z,27.27
2019-05-29T13:51:32.273Z,27.39
2019-05-29T13:54:13.299Z,27.46
2019-05-29T13:56:37.020Z,27.55
2019-05-29T13:59:08.942Z,27.59
2019-05-29T14:01:39.822Z,27.69
2019-05-29T14:04:11.215Z,27.28
2019-05-29T14:06:42.312Z,27.47
2019-05-29T14:09:13.419Z,27.35
2019-05-29T14:11:44.358Z,27.40
2019-05-29T14:14:15.875Z,27.17
2019-05-29T14:16:46.860Z,27.07
2019-05-29T14:19:17.886Z,27.37
2019-05-29T14:21:49.065Z,27.54
2019-05-29T14:24:29.092Z,27.45
2019-05-29T14:26:52.549Z,27.41
2019-05-29T14:29:23.865Z,27.55
2019-05-29T14:31:54.842Z,27.19
2019-05-29T14:34:25.763Z,27.11
2019-05-29T14:36:56.657Z,27.05
2019-05-29T14:39:27.888Z,26.88
2019-05-29T14:41:59.164Z,26.73
2019-05-29T14:44:30.206Z,26.85
2019-05-29T14:47:01.828Z,26.93
2019-05-29T14:49:32.925Z,26.97
2019-05-29T14:52:04.446Z,27.01
2019-05-29T14:54:41.662Z,26.99
2019-05-29T14:57:21.323Z,27.01
2019-05-29T14:59:41.202Z,27.03
2019-05-29T15:02:21.590Z,27.09
2019-05-29T15:04:44.603Z,27.16
2019-05-29T15:07:16.878Z,27.21
2019-05-29T15:09:48.136Z,26.97
2019-05-29T15:12:19.287Z,26.83
2019-05-29T15:14:50.448Z,26.80
2019-05-29T15:17:21.466Z,26.69
2019-05-29T15:19:52.522Z,26.54
2019-05-29T15:22:23.482Z,26.46
2019-05-29T15:25:04.329Z,26.45
2019-05-29T15:27:27.217Z,26.38
2019-05-29T15:29:58.409Z,26.20
2019-05-29T15:32:29.566Z,25.96
2019-05-29T15:35:00.544Z,25.66
2019-05-29T15:37:31.511Z,25.58
2019-05-29T15:40:02.408Z,25.46
2019-05-29T15:42:33.395Z,25.45
2019-05-29T15:45:04.695Z,25.36
2019-05-29T15:47:35.624Z,25.17
2019-05-29T15:50:07.136Z,25.09
2019-05-29T15:52:38.492Z,24.95
2019-05-29T15:55:24.602Z,24.83
2019-05-29T15:57:43.476Z,24.80
2019-05-29T16:00:15.700Z,24.55
2019-05-29T16:02:48.959Z,24.12
2019-05-29T16:05:19.441Z,24.10
2019-05-29T16:07:50.640Z,24.17
2019-05-29T16:10:22.022Z,24.27
2019-05-29T16:12:53.191Z,24.22
2019-05-29T16:15:24.078Z,24.10
2019-05-29T16:17:54.941Z,24.15
2019-05-29T16:20:26.149Z,24.13
2019-05-29T16:22:57.063Z,24.03
2019-05-29T16:25:39.564Z,23.98
2019-05-29T16:28:00.465Z,23.90
2019-05-29T16:30:31.783Z,23.76
2019-05-29T16:33:02.600Z,23.77
2019-05-29T16:35:37.282Z,23.76
2019-05-29T16:38:06.788Z,23.71
2019-05-29T16:40:38.146Z,23.82
2019-05-29T16:43:09.196Z,23.75
2019-05-29T16:45:40.389Z,23.85
2019-05-29T16:48:12.908Z,23.78
2019-05-29T16:50:44.155Z,23.89
2019-05-29T16:53:16.684Z,23.84
2019-05-29T16:55:53.718Z,23.73
2019-05-29T16:58:21.296Z,23.77
2019-05-29T17:00:52.393Z,23.77
2019-05-29T17:03:23.908Z,23.84
2019-05-29T17:05:55.194Z,23.84
2019-05-29T17:08:27.190Z,23.80
2019-05-29T17:10:58.445Z,23.60
2019-05-29T17:13:29.548Z,23.65
2019-05-29T17:16:00.760Z,23.61
2019-05-29T17:18:31.637Z,23.59
2019-05-29T17:21:03.075Z,23.40
2019-05-29T17:23:34.375Z,23.37
2019-05-29T17:26:10.512Z,23.27
2019-05-29T17:28:38.494Z,23.11
2019-05-29T17:31:09.632Z,23.08
2019-05-29T17:33:40.654Z,23.07
2019-05-29T17:36:12.191Z,22.96
2019-05-29T17:38:43.434Z,22.70
2019-05-29T17:41:15.228Z,22.62
2019-05-29T17:43:46.610Z,22.64
2019-05-29T17:46:17.616Z,22.70
2019-05-29T17:48:48.692Z,22.67
2019-05-29T17:51:19.841Z,22.58
2019-05-29T17:53:52.208Z,22.55
2019-05-29T17:56:34.565Z,22.44
2019-05-29T17:58:56.362Z,22.29
2019-05-29T18:01:30.541Z,22.28
2019-05-29T18:04:00.081Z,22.24
2019-05-29T18:06:30.979Z,22.20
2019-05-29T18:09:02.022Z,22.05
2019-05-29T18:11:34.928Z,22.03
2019-05-29T18:14:07.721Z,22.11
2019-05-29T18:16:39.031Z,22.04
2019-05-29T18:19:10.310Z,22.05
2019-05-29T18:21:41.474Z,21.95
2019-05-29T18:24:12.508Z,21.84
2019-05-29T18:26:47.076Z,21.80
2019-05-29T18:29:16.507Z,21.78
2019-05-29T18:31:47.520Z,21.79
2019-05-29T18:34:18.843Z,21.76
2019-05-29T18:36:50.212Z,21.70
2019-05-29T18:39:22.173Z,21.58
2019-05-29T18:41:53.168Z,21.52
2019-05-29T18:44:24.854Z,21.51
2019-05-29T18:46:56.162Z,21.55
2019-05-29T18:49:28.486Z,21.45
2019-05-29T18:52:00.652Z,21.34
2019-05-29T18:54:33.117Z,21.50
2019-05-29T18:57:15.312Z,21.53
2019-05-29T18:59:37.405Z,21.37
2019-05-29T19:02:08.791Z,21.40
2019-05-29T19:04:40.109Z,21.31
2019-05-29T19:07:11.267Z,21.25
2019-05-29T19:09:42.545Z,21.12
2019-05-29T19:12:13.788Z,21.04
2019-05-29T19:14:45.319Z,20.92
2019-05-29T19:17:16.599Z,20.94
2019-05-29T19:19:47.769Z,20.97
2019-05-29T19:22:18.942Z,20.95
2019-05-29T19:24:50.073Z,20.95
2019-05-29T19:27:30.956Z,20.83
2019-05-29T19:29:54.482Z,20.77
2019-05-29T19:32:25.378Z,20.77
2019-05-29T19:34:56.503Z,20.71
2019-05-29T19:37:27.943Z,20.69
2019-05-29T19:39:59.483Z,20.65
2019-05-29T19:42:30.517Z,20.59
2019-05-29T19:45:01.825Z,20.56
2019-05-29T19:47:32.936Z,20.36
2019-05-29T19:50:04.817Z,20.36
2019-05-29T19:52:36.059Z,20.24
2019-05-29T19:55:07.366Z,20.24
2019-05-29T19:57:54.664Z,20.21
2019-05-29T20:00:13.661Z,20.06
2019-05-29T20:02:44.903Z,20.16
2019-05-29T20:05:16.308Z,20.07
2019-05-29T20:07:47.685Z,20.03
2019-05-29T20:10:19.032Z,19.99
2019-05-29T20:12:50.066Z,20.03
2019-05-29T20:15:21.099Z,19.92
2019-05-29T20:17:52.157Z,19.93
2019-05-29T20:20:23.182Z,20.03
2019-05-29T20:22:54.294Z,20.02
2019-05-29T20:25:25.310Z,19.84
2019-05-29T20:28:05.940Z,19.73
2019-05-29T20:30:30.295Z,19.74
2019-05-29T20:33:01.239Z,19.66
2019-05-29T20:35:32.782Z,19.60
2019-05-29T20:38:06.479Z,19.55
2019-05-29T20:40:37.338Z,19.53
2019-05-29T20:43:08.363Z,19.42
2019-05-29T20:45:39.800Z,19.35
2019-05-29T20:48:11.547Z,19.29
2019-05-29T20:50:43.300Z,19.43
2019-05-29T20:53:14.551Z,19.40
2019-05-29T20:55:45.594Z,19.43
2019-05-29T20:58:24.639Z,19.35
2019-05-29T21:00:49.353Z,19.30
2019-05-29T21:03:20.496Z,19.34
2019-05-29T21:05:51.778Z,19.38
2019-05-29T21:08:22.969Z,19.24
2019-05-29T21:10:54.218Z,19.30
2019-05-29T21:13:25.285Z,19.29
2019-05-29T21:15:56.408Z,19.37
2019-05-29T21:18:27.590Z,19.28
2019-05-29T21:20:58.836Z,19.27
2019-05-29T21:23:29.738Z,19.35
2019-05-29T21:26:00.566Z,19.31
2019-05-29T21:28:40.903Z,19.31
2019-05-29T21:31:04.183Z,19.33
2019-05-29T21:33:35.758Z,19.25
2019-05-29T21:36:06.804Z,19.26
2019-05-29T21:38:38.041Z,19.37
2019-05-29T21:41:09.162Z,19.37
2019-05-29T21:43:40.611Z,19.40
2019-05-29T21:46:11.566Z,19.31
2019-05-29T21:48:43.342Z,19.34
2019-05-29T21:51:14.328Z,19.36
2019-05-29T21:53:45.530Z,19.30
2019-05-29T21:56:16.503Z,19.26
2019-05-29T21:59:02.690Z,19.31
2019-05-29T22:01:21.426Z,19.26
2019-05-29T22:03:52.899Z,19.34
2019-05-29T22:06:24.097Z,19.26
2019-05-29T22:08:55.376Z,19.27
2019-05-29T22:11:26.378Z,19.20
2019-05-29T22:13:58.529Z,19.33
2019-05-29T22:16:29.586Z,19.22
2019-05-29T22:19:03.803Z,19.24
2019-05-29T22:21:33.672Z,19.30
2019-05-29T22:24:04.823Z,19.33
2019-05-29T22:26:35.841Z,19.31
2019-05-29T22:29:18.106Z,19.33
2019-05-29T22:31:39.589Z,19.30
2019-05-29T22:34:11.756Z,19.40
2019-05-29T22:36:43.001Z,19.33
2019-05-29T22:39:14.429Z,19.35
2019-05-29T22:41:45.630Z,19.30
2019-05-29T22:44:16.936Z,19.32
2019-05-29T22:46:47.951Z,19.30
2019-05-29T22:49:20.161Z,19.29
2019-05-29T22:51:51.681Z,19.25
2019-05-29T22:54:23.113Z,19.29
2019-05-29T22:56:54.192Z,19.26
2019-05-29T22:59:31.895Z,19.20
2019-05-29T23:01:58.242Z,19.22
2019-05-29T23:04:29.143Z,19.20
2019-05-29T23:07:00.462Z,19.22
2019-05-29T23:09:31.519Z,19.20
2019-05-29T23:12:02.707Z,19.22
2019-05-29T23:14:33.953Z,19.23
2019-05-29T23:17:05.369Z,19.27
2019-05-29T23:19:36.720Z,19.32
2019-05-29T23:22:07.866Z,19.24
2019-05-29T23:24:39.022Z,19.33
2019-05-29T23:27:10.368Z,19.27
2019-05-29T23:29:48.767Z,19.32
2019-05-29T23:32:14.226Z,19.33
2019-05-29T23:34:45.208Z,19.31
2019-05-29T23:37:16.167Z,19.21
2019-05-29T23:39:47.331Z,19.22
2019-05-29T23:42:18.303Z,19.26
2019-05-29T23:44:51.986Z,19.25
2019-05-29T23:47:22.273Z,19.24
2019-05-29T23:49:53.569Z,19.26
2019-05-29T23:52:24.681Z,19.38
2019-05-29T23:54:56.045Z,19.19
2019-05-29T23:57:27.193Z,19.23
